createdAt,value
2022-12-27T00:00:53.064Z,3.99
2022-12-27T00:03:20.181Z,3.73
2022-12-27T00:05:48.151Z,3.54
2022-12-27T00:08:15.362Z,3.87
2022-12-27T00:10:42.427Z,3.99
2022-12-27T00:13:09.053Z,4.24
2022-12-27T00:15:35.946Z,4.00
2022-12-27T00:18:02.846Z,3.94
2022-12-27T00:20:29.430Z,3.97
2022-12-27T00:22:56.040Z,3.96
2022-12-27T00:25:22.609Z,4.03
2022-12-27T00:27:49.242Z,4.01
2022-12-27T00:30:15.861Z,3.86
2022-12-27T00:32:42.454Z,3.88
2022-12-27T00:35:09.421Z,3.95
2022-12-27T00:37:36.031Z,4.10
2022-12-27T00:40:02.648Z,4.07
2022-12-27T00:42:29.230Z,4.60
2022-12-27T00:44:55.830Z,4.56
2022-12-27T00:47:22.497Z,4.51
2022-12-27T00:49:49.114Z,4.29
2022-12-27T00:52:15.692Z,4.39
2022-12-27T00:54:42.291Z,4.18
2022-12-27T00:57:08.912Z,3.97
2022-12-27T00:59:35.512Z,4.05
2022-12-27T01:02:02.264Z,3.89
2022-12-27T01:04:28.961Z,4.13
2022-12-27T01:06:55.544Z,4.18
2022-12-27T01:09:22.280Z,4.15
2022-12-27T01:11:48.870Z,4.12
2022-12-27T01:14:15.574Z,4.09
2022-12-27T01:16:42.495Z,3.91
2022-12-27T01:19:09.167Z,4.07
2022-12-27T01:21:35.766Z,4.00
2022-12-27T01:24:02.446Z,3.77
2022-12-27T01:26:29.052Z,3.98
2022-12-27T01:28:55.666Z,4.02
2022-12-27T01:31:27.867Z,4.37
2022-12-27T01:34:00.372Z,4.60
2022-12-27T01:36:29.440Z,4.69
2022-12-27T01:38:56.337Z,4.72
2022-12-27T01:41:29.926Z,4.68
2022-12-27T01:43:56.517Z,4.62
2022-12-27T01:46:23.233Z,4.77
2022-12-27T01:48:50.467Z,4.53
2022-12-27T01:51:18.349Z,4.25
2022-12-27T01:53:49.282Z,4.43
2022-12-27T01:56:25.885Z,4.85
2022-12-27T01:58:58.497Z,5.04
2022-12-27T02:01:30.298Z,4.82
2022-12-27T02:04:04.307Z,4.39
2022-12-27T02:06:33.273Z,4.24
2022-12-27T02:09:21.244Z,4.33
2022-12-27T02:11:51.875Z,5.05
2022-12-27T02:14:31.999Z,5.13
2022-12-27T02:17:01.674Z,4.92
2022-12-27T02:19:40.373Z,4.71
2022-12-27T02:22:06.912Z,5.14
2022-12-27T02:24:54.821Z,4.97
2022-12-27T02:27:40.081Z,4.87
2022-12-27T02:30:08.810Z,4.79
2022-12-27T02:32:44.485Z,4.43
2022-12-27T02:35:22.456Z,4.64
2022-12-27T02:37:55.015Z,4.92
2022-12-27T02:40:24.347Z,4.77
2022-12-27T02:42:52.624Z,4.38
2022-12-27T02:45:26.195Z,4.20
2022-12-27T02:47:53.233Z,5.16
2022-12-27T02:50:20.008Z,5.25
2022-12-27T02:53:12.470Z,4.37
2022-12-27T02:56:07.325Z,4.59
2022-12-27T02:59:17.171Z,4.87
2022-12-27T03:01:44.530Z,4.99
2022-12-27T03:04:11.167Z,4.61
2022-12-27T03:07:07.469Z,5.04
2022-12-27T03:09:46.301Z,4.95
2022-12-27T03:12:32.376Z,5.16
2022-12-27T03:15:10.137Z,4.99
2022-12-27T03:17:44.225Z,5.34
2022-12-27T03:20:14.582Z,5.33
2022-12-27T03:22:43.678Z,4.95
2022-12-27T03:25:10.481Z,5.28
2022-12-27T03:27:39.146Z,4.97
2022-12-27T03:30:09.012Z,4.93
2022-12-27T03:32:41.516Z,4.59
2022-12-27T03:35:15.826Z,4.81
2022-12-27T03:37:50.122Z,4.46
2022-12-27T03:40:44.638Z,4.43
2022-12-27T03:43:16.344Z,4.36
2022-12-27T03:46:05.979Z,4.39
2022-12-27T03:48:43.318Z,4.34
2022-12-27T03:51:12.385Z,4.37
2022-12-27T03:53:42.862Z,4.36
2022-12-27T03:56:10.296Z,4.29
2022-12-27T03:58:36.897Z,4.37
2022-12-27T04:01:03.879Z,4.22
2022-12-27T04:03:30.534Z,4.14
2022-12-27T04:05:57.143Z,4.17
2022-12-27T04:08:23.780Z,4.28
2022-12-27T04:10:50.367Z,4.17
2022-12-27T04:13:16.967Z,4.18
2022-12-27T04:15:43.619Z,4.10
2022-12-27T04:18:10.247Z,4.17
2022-12-27T04:20:38.550Z,4.17
2022-12-27T04:23:05.490Z,4.05
2022-12-27T04:25:32.067Z,4.21
2022-12-27T04:27:58.673Z,4.22
2022-12-27T04:30:25.340Z,4.27
2022-12-27T04:32:51.969Z,4.00
2022-12-27T04:35:18.532Z,3.91
2022-12-27T04:37:45.112Z,3.80
2022-12-27T04:40:11.878Z,3.76
2022-12-27T04:42:38.526Z,3.84
2022-12-27T04:45:07.867Z,3.96
2022-12-27T04:47:39.894Z,3.56
2022-12-27T04:50:24.381Z,3.44
2022-12-27T04:52:51.009Z,3.57
2022-12-27T04:55:21.851Z,3.61
2022-12-27T04:57:49.340Z,3.72
2022-12-27T05:00:17.591Z,4.03
2022-12-27T05:02:44.274Z,3.78
2022-12-27T05:05:12.025Z,4.48
2022-12-27T05:07:38.983Z,4.31
2022-12-27T05:10:06.457Z,4.65
2022-12-27T05:12:33.088Z,4.16
2022-12-27T05:14:59.725Z,4.16
2022-12-27T05:17:26.337Z,4.25
2022-12-27T05:19:52.982Z,4.22
2022-12-27T05:22:19.670Z,4.48
2022-12-27T05:24:46.295Z,4.65
2022-12-27T05:27:12.909Z,4.38
2022-12-27T05:29:39.483Z,4.43
2022-12-27T05:32:12.662Z,4.40
2022-12-27T05:34:40.854Z,4.45
2022-12-27T05:37:07.596Z,4.81
2022-12-27T05:39:34.237Z,4.88
2022-12-27T05:42:00.820Z,4.75
2022-12-27T05:44:27.483Z,4.69
2022-12-27T05:46:55.216Z,4.59
2022-12-27T05:49:22.134Z,4.84
2022-12-27T05:51:48.770Z,4.79
2022-12-27T05:54:15.619Z,4.99
2022-12-27T05:56:42.304Z,5.24
2022-12-27T05:59:09.082Z,5.10
2022-12-27T06:01:35.847Z,5.15
2022-12-27T06:04:02.734Z,5.21
2022-12-27T06:06:29.370Z,5.36
2022-12-27T06:08:55.970Z,5.47
2022-12-27T06:11:22.691Z,5.22
2022-12-27T06:13:52.007Z,5.16
2022-12-27T06:16:20.681Z,5.24
2022-12-27T06:18:47.363Z,5.27
2022-12-27T06:21:17.347Z,5.17
2022-12-27T06:23:45.217Z,5.10
2022-12-27T06:26:17.061Z,5.37
2022-12-27T06:28:43.854Z,5.65
2022-12-27T06:31:11.271Z,5.84
2022-12-27T06:33:38.007Z,5.47
2022-12-27T06:36:09.896Z,6.01
2022-12-27T06:38:36.747Z,5.96
2022-12-27T06:41:05.165Z,5.64
2022-12-27T06:43:31.758Z,5.59
2022-12-27T06:46:01.605Z,5.74
2022-12-27T06:48:29.133Z,5.59
2022-12-27T06:50:55.762Z,5.45
2022-12-27T06:53:22.529Z,5.38
2022-12-27T06:55:49.563Z,5.64
2022-12-27T06:58:16.791Z,5.45
2022-12-27T07:00:43.375Z,5.56
2022-12-27T07:03:10.032Z,5.66
2022-12-27T07:05:37.652Z,5.54
2022-12-27T07:08:04.992Z,5.41
2022-12-27T07:10:32.043Z,5.78
2022-12-27T07:12:59.168Z,5.73
2022-12-27T07:15:25.760Z,5.67
2022-12-27T07:17:52.432Z,5.60
2022-12-27T07:20:19.051Z,5.94
2022-12-27T07:22:45.680Z,6.04
2022-12-27T07:25:12.445Z,5.91
2022-12-27T07:27:39.026Z,5.80
2022-12-27T07:30:06.156Z,6.29
2022-12-27T07:32:32.740Z,5.93
2022-12-27T07:34:59.346Z,5.65
2022-12-27T07:37:26.026Z,5.52
2022-12-27T07:39:52.598Z,6.12
2022-12-27T07:42:19.183Z,5.88
2022-12-27T07:44:45.795Z,5.97
2022-12-27T07:47:12.383Z,6.17
2022-12-27T07:49:38.968Z,6.32
2022-12-27T07:52:05.610Z,6.48
2022-12-27T07:54:32.188Z,6.77
2022-12-27T07:56:58.773Z,6.97
2022-12-27T07:59:25.367Z,6.88
2022-12-27T08:01:52.049Z,6.82
2022-12-27T08:04:18.659Z,6.92
2022-12-27T08:06:45.903Z,6.96
2022-12-27T08:09:16.307Z,7.00
2022-12-27T08:11:42.879Z,6.92
2022-12-27T08:14:09.461Z,7.05
2022-12-27T08:16:36.048Z,6.95
2022-12-27T08:19:08.216Z,6.99
2022-12-27T08:21:35.266Z,6.92
2022-12-27T08:24:01.850Z,6.98
2022-12-27T08:26:28.451Z,6.92
2022-12-27T08:28:55.103Z,6.95
2022-12-27T08:31:21.764Z,6.83
2022-12-27T08:33:50.328Z,6.71
2022-12-27T08:39:05.788Z,6.66
2022-12-27T08:41:32.495Z,6.68
2022-12-27T08:43:59.207Z,6.67
2022-12-27T08:46:25.938Z,6.71
2022-12-27T08:48:52.628Z,6.67
2022-12-27T08:51:31.193Z,6.58
2022-12-27T08:53:59.648Z,6.66
2022-12-27T08:56:26.262Z,6.68
2022-12-27T08:58:52.992Z,6.76
2022-12-27T09:01:19.729Z,6.71
2022-12-27T09:03:46.481Z,6.71
2022-12-27T09:06:18.304Z,6.65
2022-12-27T09:08:47.165Z,6.74
2022-12-27T09:11:16.970Z,6.69
2022-12-27T09:13:44.003Z,6.82
2022-12-27T09:16:14.177Z,6.91
2022-12-27T09:18:42.635Z,6.86
2022-12-27T09:21:14.041Z,6.94
2022-12-27T09:23:41.536Z,6.73
2022-12-27T09:26:10.547Z,6.72
2022-12-27T09:28:37.231Z,6.85
2022-12-27T09:31:04.665Z,6.77
2022-12-27T09:33:32.292Z,7.09
2022-12-27T09:36:07.815Z,7.12
2022-12-27T09:38:34.816Z,7.03
2022-12-27T09:41:05.767Z,6.98
2022-12-27T09:43:40.882Z,7.09
2022-12-27T09:46:20.493Z,7.00
2022-12-27T09:48:49.610Z,6.82
2022-12-27T09:51:29.799Z,7.02
2022-12-27T09:54:20.862Z,6.95
2022-12-27T09:57:18.420Z,6.98
2022-12-27T09:59:42.133Z,6.93
2022-12-27T10:02:22.021Z,6.85
2022-12-27T10:08:21.500Z,6.90
2022-12-27T10:11:16.463Z,6.87
2022-12-27T10:13:49.137Z,6.93
2022-12-27T10:16:34.094Z,6.76
2022-12-27T10:19:03.407Z,6.73
2022-12-27T10:21:35.793Z,6.66
2022-12-27T10:24:23.979Z,6.50
2022-12-27T10:26:52.093Z,6.64
2022-12-27T10:29:26.158Z,6.70
2022-12-27T10:31:52.990Z,6.57
2022-12-27T10:34:20.829Z,6.64
2022-12-27T10:36:47.403Z,6.78
2022-12-27T10:39:28.868Z,6.57
2022-12-27T10:42:08.492Z,6.54
2022-12-27T10:44:35.218Z,6.39
2022-12-27T10:47:02.192Z,6.29
2022-12-27T10:49:34.030Z,6.43
2022-12-27T10:52:20.072Z,6.36
2022-12-27T10:54:56.031Z,6.44
2022-12-27T10:57:29.555Z,6.31
2022-12-27T11:00:14.127Z,6.31
2022-12-27T11:02:58.504Z,6.50
2022-12-27T11:05:31.419Z,6.45
2022-12-27T11:07:58.526Z,6.44
2022-12-27T11:10:30.020Z,6.49
2022-12-27T11:12:56.538Z,6.50
2022-12-27T11:15:23.430Z,6.50
2022-12-27T11:17:58.805Z,6.36
2022-12-27T11:20:39.570Z,6.48
2022-12-27T11:23:09.191Z,6.71
2022-12-27T11:25:54.083Z,6.64
2022-12-27T11:28:29.384Z,6.55
2022-12-27T11:30:59.760Z,6.35
2022-12-27T11:33:36.391Z,6.40
2022-12-27T11:36:04.174Z,6.59
2022-12-27T11:38:33.947Z,6.60
2022-12-27T11:41:51.508Z,6.72
2022-12-27T11:44:33.339Z,6.52
2022-12-27T11:47:25.712Z,6.59
2022-12-27T11:49:57.843Z,6.48
2022-12-27T11:52:30.100Z,6.42
2022-12-27T11:55:18.401Z,6.47
2022-12-27T11:58:20.031Z,6.45
2022-12-27T12:01:37.806Z,6.58
2022-12-27T12:04:10.532Z,6.72
2022-12-27T12:06:49.395Z,6.33
2022-12-27T12:09:57.851Z,6.30
2022-12-27T12:12:44.619Z,6.36
2022-12-27T12:15:23.269Z,6.25
2022-12-27T12:18:11.185Z,6.47
2022-12-27T12:20:58.268Z,6.31
2022-12-27T12:23:49.409Z,6.57
2022-12-27T12:26:22.144Z,6.26
2022-12-27T12:29:25.874Z,6.38
2022-12-27T12:32:01.435Z,6.58
2022-12-27T12:34:42.892Z,6.92
2022-12-27T12:37:14.781Z,6.66
2022-12-27T12:40:01.673Z,6.66
2022-12-27T12:42:57.733Z,6.61
2022-12-27T12:45:24.247Z,6.59
2022-12-27T12:47:50.781Z,6.30
2022-12-27T12:50:45.030Z,6.20
2022-12-27T12:53:36.487Z,6.51
2022-12-27T12:56:33.490Z,6.29
2022-12-27T12:59:20.368Z,5.78
2022-12-27T13:01:50.901Z,6.01
2022-12-27T13:04:41.590Z,5.99
2022-12-27T13:07:10.751Z,6.06
2022-12-27T13:10:24.728Z,5.92
2022-12-27T13:13:00.540Z,5.87
2022-12-27T13:16:11.771Z,5.95
2022-12-27T13:18:41.004Z,5.91
2022-12-27T13:21:26.485Z,5.73
2022-12-27T13:24:17.613Z,5.79
2022-12-27T13:27:34.735Z,5.72
2022-12-27T13:30:21.999Z,5.65
2022-12-27T13:32:54.187Z,5.55
2022-12-27T13:35:39.057Z,5.56
2022-12-27T13:38:30.884Z,5.58
2022-12-27T13:41:32.292Z,5.79
2022-12-27T13:44:27.774Z,5.76
2022-12-27T13:47:48.215Z,5.41
2022-12-27T13:50:43.863Z,5.30
2022-12-27T13:53:16.354Z,5.10
2022-12-27T13:55:49.032Z,5.20
2022-12-27T13:58:33.511Z,5.23
2022-12-27T14:01:27.862Z,5.16
2022-12-27T14:04:16.364Z,5.10
2022-12-27T14:06:48.979Z,5.10
2022-12-27T14:09:30.717Z,5.01
2022-12-27T14:12:24.055Z,4.86
2022-12-27T14:14:52.172Z,4.80
2022-12-27T14:17:20.462Z,4.84
2022-12-27T14:19:49.734Z,4.92
2022-12-27T14:22:34.437Z,4.63
2022-12-27T14:25:00.976Z,4.60
2022-12-27T14:27:51.888Z,4.69
2022-12-27T14:30:42.504Z,4.70
2022-12-27T14:33:42.951Z,4.64
2022-12-27T14:36:53.434Z,4.80
2022-12-27T14:39:44.548Z,4.39
2022-12-27T14:42:32.297Z,4.62
2022-12-27T14:45:21.839Z,4.89
2022-12-27T14:48:12.305Z,4.65
2022-12-27T14:51:50.456Z,4.01
2022-12-27T14:54:28.486Z,3.81
2022-12-27T14:57:16.405Z,4.11
2022-12-27T15:00:07.992Z,4.33
2022-12-27T15:02:52.988Z,4.33
2022-12-27T15:05:31.390Z,4.05
2022-12-27T15:08:23.201Z,3.77
2022-12-27T15:11:14.691Z,3.42
2022-12-27T15:14:12.077Z,3.43
2022-12-27T15:17:05.908Z,3.44
2022-12-27T15:19:50.465Z,3.56
2022-12-27T15:22:25.895Z,3.38
2022-12-27T15:25:16.559Z,3.36
2022-12-27T15:27:55.532Z,3.44
2022-12-27T15:30:50.491Z,3.40
2022-12-27T15:33:36.577Z,3.50
2022-12-27T15:36:09.993Z,3.51
2022-12-27T15:38:42.789Z,3.58
2022-12-27T15:41:09.352Z,3.01
2022-12-27T15:43:57.783Z,3.33
2022-12-27T15:46:54.729Z,3.50
2022-12-27T15:49:25.833Z,3.26
2022-12-27T15:52:09.079Z,3.36
2022-12-27T15:55:04.942Z,3.16
2022-12-27T15:57:50.492Z,3.09
2022-12-27T16:00:31.209Z,3.08
2022-12-27T16:03:02.825Z,3.19
2022-12-27T16:05:48.240Z,3.30
2022-12-27T16:08:26.214Z,2.58
2022-12-27T16:10:54.016Z,3.00
2022-12-27T16:13:37.666Z,2.67
2022-12-27T16:16:37.449Z,2.93
2022-12-27T16:19:42.519Z,2.83
2022-12-27T16:22:24.565Z,3.01
2022-12-27T16:24:51.197Z,3.10
2022-12-27T16:27:31.454Z,2.81
2022-12-27T16:29:58.785Z,2.81
2022-12-27T16:32:28.214Z,2.67
2022-12-27T16:35:08.873Z,2.73
2022-12-27T16:37:45.160Z,2.96
2022-12-27T16:40:42.076Z,2.50
2022-12-27T16:43:08.607Z,2.38
2022-12-27T16:45:44.778Z,2.55
2022-12-27T16:48:20.834Z,2.46
2022-12-27T16:50:59.303Z,2.44
2022-12-27T16:53:31.593Z,2.40
2022-12-27T16:56:18.316Z,2.39
2022-12-27T16:58:45.085Z,2.66
2022-12-27T17:01:20.864Z,2.63
2022-12-27T17:03:49.275Z,2.73
2022-12-27T17:06:32.968Z,2.68
2022-12-27T17:09:09.632Z,2.60
2022-12-27T17:12:02.698Z,2.34
2022-12-27T17:14:37.607Z,2.33
2022-12-27T17:17:14.498Z,2.34
2022-12-27T17:20:00.989Z,2.56
2022-12-27T17:22:34.182Z,2.51
2022-12-27T17:25:02.462Z,2.67
2022-12-27T17:27:54.536Z,2.51
2022-12-27T17:30:48.429Z,2.10
2022-12-27T17:33:20.805Z,2.05
2022-12-27T17:35:53.381Z,1.92
2022-12-27T17:38:51.248Z,1.91
2022-12-27T17:42:08.912Z,1.97
2022-12-27T17:44:56.463Z,2.12
2022-12-27T17:47:50.455Z,1.97
2022-12-27T17:50:22.834Z,2.05
2022-12-27T17:53:19.126Z,1.80
2022-12-27T17:56:11.750Z,2.27
2022-12-27T17:58:38.703Z,2.36
2022-12-27T18:01:05.498Z,2.02
2022-12-27T18:03:44.266Z,2.14
2022-12-27T18:06:11.733Z,2.02
2022-12-27T18:08:39.746Z,2.01
2022-12-27T18:11:07.111Z,2.25
2022-12-27T18:13:39.072Z,2.31
2022-12-27T18:16:38.792Z,2.31
2022-12-27T18:19:05.569Z,2.65
2022-12-27T18:21:32.352Z,2.14
2022-12-27T18:23:59.995Z,1.94
2022-12-27T18:26:39.935Z,1.86
2022-12-27T18:29:11.264Z,1.71
2022-12-27T18:31:47.970Z,1.61
2022-12-27T18:34:19.059Z,1.65
2022-12-27T18:36:59.389Z,1.80
2022-12-27T18:39:40.683Z,1.75
2022-12-27T18:42:36.584Z,1.85
2022-12-27T18:45:16.224Z,1.62
2022-12-27T18:47:48.612Z,1.69
2022-12-27T18:50:30.377Z,1.73
2022-12-27T18:53:33.269Z,1.61
2022-12-27T18:56:02.241Z,1.46
2022-12-27T18:58:28.925Z,1.43
2022-12-27T19:01:14.002Z,1.50
2022-12-27T19:03:41.201Z,2.15
2022-12-27T19:06:13.344Z,1.91
2022-12-27T19:08:46.790Z,1.92
2022-12-27T19:11:23.119Z,1.73
2022-12-27T19:13:53.688Z,1.70
2022-12-27T19:16:29.249Z,1.40
2022-12-27T19:19:07.605Z,1.17
2022-12-27T19:21:37.515Z,0.55
2022-12-27T19:24:19.267Z,0.73
2022-12-27T19:26:45.861Z,0.75
2022-12-27T19:29:16.298Z,0.84
2022-12-27T19:31:51.180Z,0.35
2022-12-27T19:34:20.585Z,0.65
2022-12-27T19:36:48.781Z,0.62
2022-12-27T19:39:25.209Z,1.21
2022-12-27T19:41:53.057Z,1.83
2022-12-27T19:44:27.481Z,1.85
2022-12-27T19:46:55.341Z,1.67
2022-12-27T19:52:16.541Z,1.05
2022-12-27T19:54:43.373Z,0.90
2022-12-27T19:57:12.715Z,1.16
2022-12-27T19:59:40.077Z,1.10
2022-12-27T20:02:07.510Z,0.50
2022-12-27T20:04:34.327Z,0.41
2022-12-27T20:07:02.041Z,0.86
2022-12-27T20:09:28.676Z,0.93
2022-12-27T20:11:55.629Z,0.91
2022-12-27T20:14:22.277Z,0.96
2022-12-27T20:16:48.934Z,0.95
2022-12-27T20:19:16.720Z,1.03
2022-12-27T20:21:43.488Z,1.13
2022-12-27T20:24:13.574Z,1.26
2022-12-27T20:26:41.756Z,1.35
2022-12-27T20:29:08.713Z,1.15
2022-12-27T20:31:40.667Z,1.07
2022-12-27T20:34:11.064Z,1.00
2022-12-27T20:36:37.789Z,1.02
2022-12-27T20:39:04.532Z,0.07
2022-12-27T20:41:31.227Z,-0.10
2022-12-27T20:43:58.423Z,-0.12
2022-12-27T20:46:25.626Z,0.03
2022-12-27T20:48:53.742Z,0.24
2022-12-27T20:51:23.243Z,0.28
2022-12-27T20:53:54.972Z,0.27
2022-12-27T20:56:21.581Z,0.12
2022-12-27T20:58:48.231Z,0.77
2022-12-27T21:01:18.349Z,1.49
2022-12-27T21:03:45.298Z,1.20
2022-12-27T21:06:21.074Z,0.83
2022-12-27T21:08:54.414Z,0.70
2022-12-27T21:11:25.889Z,0.67
2022-12-27T21:13:52.494Z,0.45
2022-12-27T21:16:21.552Z,0.37
2022-12-27T21:18:48.730Z,0.05
2022-12-27T21:21:19.719Z,0.07
2022-12-27T21:23:47.400Z,0.17
2022-12-27T21:26:19.197Z,0.09
2022-12-27T21:28:46.968Z,0.06
2022-12-27T21:31:15.105Z,0.27
2022-12-27T21:33:41.881Z,0.29
2022-12-27T21:36:13.792Z,0.29
2022-12-27T21:38:41.259Z,0.33
2022-12-27T21:41:29.616Z,0.18
2022-12-27T21:43:56.551Z,0.17
2022-12-27T21:46:25.651Z,0.27
2022-12-27T21:48:57.807Z,0.10
2022-12-27T21:51:25.256Z,0.28
2022-12-27T21:53:52.288Z,0.25
2022-12-27T21:56:19.400Z,0.43
2022-12-27T21:58:46.475Z,0.55
2022-12-27T22:01:21.447Z,0.41
2022-12-27T22:03:50.157Z,0.52
2022-12-27T22:06:19.655Z,0.48
2022-12-27T22:08:48.875Z,0.28
2022-12-27T22:11:16.690Z,0.17
2022-12-27T22:13:43.386Z,0.20
2022-12-27T22:16:31.105Z,-0.24
2022-12-27T22:18:58.159Z,-0.25
2022-12-27T22:21:28.256Z,-0.16
2022-12-27T22:23:57.240Z,-0.06
2022-12-27T22:26:26.955Z,0.08
2022-12-27T22:28:53.702Z,0.01
2022-12-27T22:31:22.914Z,-0.15
2022-12-27T22:33:50.436Z,-0.18
2022-12-27T22:36:22.453Z,-0.04
2022-12-27T22:38:50.031Z,0.08
2022-12-27T22:41:16.569Z,0.06
2022-12-27T22:43:51.777Z,0.00
2022-12-27T22:46:19.098Z,0.02
2022-12-27T22:48:53.916Z,-0.06
2022-12-27T22:51:23.303Z,-0.19
2022-12-27T22:53:50.062Z,-0.38
2022-12-27T22:56:25.099Z,-0.66
2022-12-27T22:58:51.730Z,-0.36
2022-12-27T23:01:22.053Z,-0.13
2022-12-27T23:03:49.625Z,-0.10
2022-12-27T23:06:17.249Z,0.08
2022-12-27T23:08:44.700Z,-0.01
2022-12-27T23:11:19.682Z,0.05
2022-12-27T23:13:47.616Z,-0.06
2022-12-27T23:16:14.398Z,-0.17
2022-12-27T23:18:41.533Z,-0.44
2022-12-27T23:21:21.224Z,-0.09
2022-12-27T23:23:52.166Z,-0.25
2022-12-27T23:26:21.603Z,-0.52
2022-12-27T23:28:49.720Z,-0.64
2022-12-27T23:31:17.894Z,-0.45
2022-12-27T23:33:44.562Z,-0.60
2022-12-27T23:36:12.959Z,-0.33
2022-12-27T23:38:43.677Z,-0.20
2022-12-27T23:41:28.225Z,-0.30
2022-12-27T23:43:56.227Z,-0.30
2022-12-27T23:46:32.941Z,-0.36
2022-12-27T23:49:02.892Z,-0.43
2022-12-27T23:51:31.584Z,-0.88
2022-12-27T23:53:58.786Z,-0.62
2022-12-27T23:56:28.627Z,-0.48
2022-12-27T23:58:58.033Z,-0.72
